sensor_id;sensor_type;location;lat;lon;timestamp;P1;durP1;ratioP1;P2;durP2;ratioP2
18146;SDS011;9199;48.832;9.182;2022-08-30T00:02:12;7.97;;;5.15;;
18146;SDS011;9199;48.832;9.182;2022-08-30T00:04:39;9.83;;;5.33;;
18146;SDS011;9199;48.832;9.182;2022-08-30T00:07:06;8.98;;;5.30;;
18146;SDS011;9199;48.832;9.182;2022-08-30T00:09:32;9.65;;;5.60;;
18146;SDS011;9199;48.832;9.182;2022-08-30T00:11:59;8.13;;;5.05;;
18146;SDS011;9199;48.832;9.182;2022-08-30T00:14:28;9.60;;;4.97;;
18146;SDS011;9199;48.832;9.182;2022-08-30T00:16:55;9.70;;;4.73;;
18146;SDS011;9199;48.832;9.182;2022-08-30T00:19:23;8.18;;;5.20;;
18146;SDS011;9199;48.832;9.182;2022-08-30T00:21:50;9.07;;;5.03;;
18146;SDS011;9199;48.832;9.182;2022-08-30T00:24:16;7.75;;;5.00;;
18146;SDS011;9199;48.832;9.182;2022-08-30T00:26:43;9.02;;;4.85;;
18146;SDS011;9199;48.832;9.182;2022-08-30T00:29:10;7.43;;;4.90;;
18146;SDS011;9199;48.832;9.182;2022-08-30T00:31:37;9.43;;;5.13;;
18146;SDS011;9199;48.832;9.182;2022-08-30T00:34:03;9.30;;;5.57;;
18146;SDS011;9199;48.832;9.182;2022-08-30T00:36:32;8.57;;;5.30;;
18146;SDS011;9199;48.832;9.182;2022-08-30T00:38:59;9.43;;;5.43;;
18146;SDS011;9199;48.832;9.182;2022-08-30T00:41:27;8.50;;;5.30;;
18146;SDS011;9199;48.832;9.182;2022-08-30T00:43:53;9.10;;;5.00;;
18146;SDS011;9199;48.832;9.182;2022-08-30T00:46:21;8.10;;;4.93;;
18146;SDS011;9199;48.832;9.182;2022-08-30T00:48:47;8.00;;;5.05;;
18146;SDS011;9199;48.832;9.182;2022-08-30T00:51:16;10.50;;;5.80;;
18146;SDS011;9199;48.832;9.182;2022-08-30T00:53:48;9.60;;;5.20;;
18146;SDS011;9199;48.832;9.182;2022-08-30T00:56:18;14.00;;;5.95;;
18146;SDS011;9199;48.832;9.182;2022-08-30T00:58:46;10.25;;;5.32;;
18146;SDS011;9199;48.832;9.182;2022-08-30T01:01:16;12.55;;;5.10;;
18146;SDS011;9199;48.832;9.182;2022-08-30T01:03:43;9.95;;;5.18;;
18146;SDS011;9199;48.832;9.182;2022-08-30T01:06:11;9.27;;;5.10;;
18146;SDS011;9199;48.832;9.182;2022-08-30T01:08:40;8.80;;;5.30;;
18146;SDS011;9199;48.832;9.182;2022-08-30T01:11:08;10.10;;;5.53;;
18146;SDS011;9199;48.832;9.182;2022-08-30T01:13:36;8.98;;;5.40;;
18146;SDS011;9199;48.832;9.182;2022-08-30T01:16:04;8.90;;;5.57;;
18146;SDS011;9199;48.832;9.182;2022-08-30T01:18:32;10.87;;;5.30;;
18146;SDS011;9199;48.832;9.182;2022-08-30T01:21:00;9.13;;;4.93;;
18146;SDS011;9199;48.832;9.182;2022-08-30T01:23:36;7.63;;;5.20;;
18146;SDS011;9199;48.832;9.182;2022-08-30T01:26:07;9.98;;;5.80;;
18146;SDS011;9199;48.832;9.182;2022-08-30T01:28:34;9.07;;;5.53;;
18146;SDS011;9199;48.832;9.182;2022-08-30T01:31:02;11.23;;;5.50;;
18146;SDS011;9199;48.832;9.182;2022-08-30T01:33:29;11.10;;;5.93;;
18146;SDS011;9199;48.832;9.182;2022-08-30T01:35:57;9.77;;;5.95;;
18146;SDS011;9199;48.832;9.182;2022-08-30T01:38:27;10.68;;;6.07;;
18146;SDS011;9199;48.832;9.182;2022-08-30T01:40:59;9.35;;;5.35;;
18146;SDS011;9199;48.832;9.182;2022-08-30T01:43:34;11.73;;;5.57;;
18146;SDS011;9199;48.832;9.182;2022-08-30T01:46:02;12.98;;;5.75;;
18146;SDS011;9199;48.832;9.182;2022-08-30T01:48:29;8.57;;;5.82;;
18146;SDS011;9199;48.832;9.182;2022-08-30T01:50:56;8.50;;;5.32;;
18146;SDS011;9199;48.832;9.182;2022-08-30T01:53:23;9.38;;;5.22;;
18146;SDS011;9199;48.832;9.182;2022-08-30T01:55:49;9.10;;;5.00;;
18146;SDS011;9199;48.832;9.182;2022-08-30T01:58:17;10.13;;;5.30;;
18146;SDS011;9199;48.832;9.182;2022-08-30T02:00:44;7.82;;;5.10;;
18146;SDS011;9199;48.832;9.182;2022-08-30T02:03:11;8.07;;;4.93;;
18146;SDS011;9199;48.832;9.182;2022-08-30T02:05:38;9.32;;;5.45;;
18146;SDS011;9199;48.832;9.182;2022-08-30T02:08:04;8.17;;;5.37;;
18146;SDS011;9199;48.832;9.182;2022-08-30T02:10:31;9.75;;;5.72;;
18146;SDS011;9199;48.832;9.182;2022-08-30T02:12:58;9.82;;;5.47;;
18146;SDS011;9199;48.832;9.182;2022-08-30T02:15:26;8.52;;;5.20;;
18146;SDS011;9199;48.832;9.182;2022-08-30T02:17:53;8.45;;;5.28;;
18146;SDS011;9199;48.832;9.182;2022-08-30T02:20:20;9.27;;;5.00;;
18146;SDS011;9199;48.832;9.182;2022-08-30T02:22:47;9.32;;;5.60;;
18146;SDS011;9199;48.832;9.182;2022-08-30T02:25:13;9.50;;;6.00;;
18146;SDS011;9199;48.832;9.182;2022-08-30T02:27:40;8.57;;;5.53;;
18146;SDS011;9199;48.832;9.182;2022-08-30T02:30:08;9.23;;;5.68;;
18146;SDS011;9199;48.832;9.182;2022-08-30T02:32:37;9.43;;;5.50;;
18146;SDS011;9199;48.832;9.182;2022-08-30T02:35:08;11.18;;;5.97;;
18146;SDS011;9199;48.832;9.182;2022-08-30T02:37:35;9.82;;;5.95;;
18146;SDS011;9199;48.832;9.182;2022-08-30T02:40:02;9.45;;;5.93;;
18146;SDS011;9199;48.832;9.182;2022-08-30T02:42:30;10.38;;;5.70;;
18146;SDS011;9199;48.832;9.182;2022-08-30T02:44:57;9.53;;;5.97;;
18146;SDS011;9199;48.832;9.182;2022-08-30T02:47:24;9.68;;;5.55;;
18146;SDS011;9199;48.832;9.182;2022-08-30T02:49:52;10.15;;;5.70;;
18146;SDS011;9199;48.832;9.182;2022-08-30T02:52:19;9.38;;;5.55;;
18146;SDS011;9199;48.832;9.182;2022-08-30T02:54:47;8.63;;;5.10;;
18146;SDS011;9199;48.832;9.182;2022-08-30T02:57:13;9.17;;;5.27;;
18146;SDS011;9199;48.832;9.182;2022-08-30T02:59:40;10.43;;;5.60;;
18146;SDS011;9199;48.832;9.182;2022-08-30T03:02:09;9.35;;;5.97;;
18146;SDS011;9199;48.832;9.182;2022-08-30T03:04:36;10.63;;;6.10;;
18146;SDS011;9199;48.832;9.182;2022-08-30T03:07:05;8.02;;;5.60;;
18146;SDS011;9199;48.832;9.182;2022-08-30T03:09:32;7.87;;;5.57;;
18146;SDS011;9199;48.832;9.182;2022-08-30T03:11:59;8.70;;;5.95;;
18146;SDS011;9199;48.832;9.182;2022-08-30T03:14:26;10.90;;;5.90;;
18146;SDS011;9199;48.832;9.182;2022-08-30T03:16:53;10.32;;;6.10;;
18146;SDS011;9199;48.832;9.182;2022-08-30T03:19:20;9.43;;;6.00;;
18146;SDS011;9199;48.832;9.182;2022-08-30T03:21:47;9.90;;;6.10;;
18146;SDS011;9199;48.832;9.182;2022-08-30T03:24:16;9.15;;;6.10;;
18146;SDS011;9199;48.832;9.182;2022-08-30T03:26:43;9.50;;;5.57;;
18146;SDS011;9199;48.832;9.182;2022-08-30T03:29:09;9.73;;;5.63;;
18146;SDS011;9199;48.832;9.182;2022-08-30T03:31:36;10.68;;;5.70;;
18146;SDS011;9199;48.832;9.182;2022-08-30T03:34:03;8.07;;;5.50;;
18146;SDS011;9199;48.832;9.182;2022-08-30T03:36:30;12.55;;;6.28;;
18146;SDS011;9199;48.832;9.182;2022-08-30T03:38:57;9.02;;;6.03;;
18146;SDS011;9199;48.832;9.182;2022-08-30T03:41:25;9.05;;;6.03;;
18146;SDS011;9199;48.832;9.182;2022-08-30T03:43:52;9.27;;;5.90;;
18146;SDS011;9199;48.832;9.182;2022-08-30T03:46:19;9.30;;;6.03;;
18146;SDS011;9199;48.832;9.182;2022-08-30T03:48:45;9.43;;;5.70;;
18146;SDS011;9199;48.832;9.182;2022-08-30T03:51:12;9.95;;;6.32;;
18146;SDS011;9199;48.832;9.182;2022-08-30T03:53:39;7.95;;;5.60;;
18146;SDS011;9199;48.832;9.182;2022-08-30T03:56:06;9.48;;;6.65;;
18146;SDS011;9199;48.832;9.182;2022-08-30T03:58:34;9.37;;;6.07;;
18146;SDS011;9199;48.832;9.182;2022-08-30T04:01:01;11.00;;;6.30;;
18146;SDS011;9199;48.832;9.182;2022-08-30T04:03:27;9.98;;;6.32;;
18146;SDS011;9199;48.832;9.182;2022-08-30T04:05:54;9.43;;;5.88;;
18146;SDS011;9199;48.832;9.182;2022-08-30T04:08:21;10.50;;;6.65;;
18146;SDS011;9199;48.832;9.182;2022-08-30T04:10:49;10.03;;;6.23;;
18146;SDS011;9199;48.832;9.182;2022-08-30T04:13:17;11.85;;;6.13;;
18146;SDS011;9199;48.832;9.182;2022-08-30T04:15:46;8.32;;;5.97;;
18146;SDS011;9199;48.832;9.182;2022-08-30T04:18:12;9.95;;;6.13;;
18146;SDS011;9199;48.832;9.182;2022-08-30T04:20:39;10.18;;;6.15;;
18146;SDS011;9199;48.832;9.182;2022-08-30T04:23:06;8.90;;;6.20;;
18146;SDS011;9199;48.832;9.182;2022-08-30T04:25:33;14.02;;;6.70;;
18146;SDS011;9199;48.832;9.182;2022-08-30T04:28:01;9.10;;;6.20;;
18146;SDS011;9199;48.832;9.182;2022-08-30T04:30:29;9.57;;;5.88;;
18146;SDS011;9199;48.832;9.182;2022-08-30T04:32:58;13.10;;;6.32;;
18146;SDS011;9199;48.832;9.182;2022-08-30T04:35:25;12.47;;;6.60;;
18146;SDS011;9199;48.832;9.182;2022-08-30T04:37:52;9.57;;;6.07;;
18146;SDS011;9199;48.832;9.182;2022-08-30T04:40:19;14.05;;;6.85;;
18146;SDS011;9199;48.832;9.182;2022-08-30T04:42:46;10.77;;;6.78;;
18146;SDS011;9199;48.832;9.182;2022-08-30T04:45:13;9.65;;;5.95;;
18146;SDS011;9199;48.832;9.182;2022-08-30T04:47:41;16.23;;;6.37;;
18146;SDS011;9199;48.832;9.182;2022-08-30T04:50:11;12.73;;;6.07;;
18146;SDS011;9199;48.832;9.182;2022-08-30T04:52:39;9.43;;;5.97;;
18146;SDS011;9199;48.832;9.182;2022-08-30T04:55:06;12.80;;;6.32;;
18146;SDS011;9199;48.832;9.182;2022-08-30T04:57:34;11.15;;;6.60;;
18146;SDS011;9199;48.832;9.182;2022-08-30T05:00:03;11.40;;;6.43;;
18146;SDS011;9199;48.832;9.182;2022-08-30T05:02:31;10.38;;;6.13;;
18146;SDS011;9199;48.832;9.182;2022-08-30T05:04:58;9.55;;;5.95;;
18146;SDS011;9199;48.832;9.182;2022-08-30T05:07:44;10.07;;;5.85;;
18146;SDS011;9199;48.832;9.182;2022-08-30T05:10:11;10.18;;;6.43;;
18146;SDS011;9199;48.832;9.182;2022-08-30T05:12:38;13.00;;;5.90;;
18146;SDS011;9199;48.832;9.182;2022-08-30T05:15:06;11.38;;;5.78;;
18146;SDS011;9199;48.832;9.182;2022-08-30T05:17:33;12.80;;;6.05;;
18146;SDS011;9199;48.832;9.182;2022-08-30T05:20:02;10.40;;;5.70;;
18146;SDS011;9199;48.832;9.182;2022-08-30T05:22:30;12.68;;;5.90;;
18146;SDS011;9199;48.832;9.182;2022-08-30T05:24:59;10.53;;;6.27;;
18146;SDS011;9199;48.832;9.182;2022-08-30T05:27:25;10.13;;;5.68;;
18146;SDS011;9199;48.832;9.182;2022-08-30T05:29:52;9.20;;;5.80;;
18146;SDS011;9199;48.832;9.182;2022-08-30T05:32:20;10.50;;;5.68;;
18146;SDS011;9199;48.832;9.182;2022-08-30T05:34:47;10.70;;;5.97;;
18146;SDS011;9199;48.832;9.182;2022-08-30T05:37:14;10.17;;;5.30;;
18146;SDS011;9199;48.832;9.182;2022-08-30T05:39:41;12.13;;;5.88;;
18146;SDS011;9199;48.832;9.182;2022-08-30T05:42:09;11.13;;;6.00;;
18146;SDS011;9199;48.832;9.182;2022-08-30T05:44:36;10.13;;;5.72;;
18146;SDS011;9199;48.832;9.182;2022-08-30T05:47:03;10.52;;;5.68;;
18146;SDS011;9199;48.832;9.182;2022-08-30T05:49:30;13.30;;;6.00;;
18146;SDS011;9199;48.832;9.182;2022-08-30T05:51:57;9.82;;;5.82;;
18146;SDS011;9199;48.832;9.182;2022-08-30T05:54:23;10.18;;;6.20;;
18146;SDS011;9199;48.832;9.182;2022-08-30T05:56:50;8.45;;;5.82;;
18146;SDS011;9199;48.832;9.182;2022-08-30T05:59:18;8.68;;;5.97;;
18146;SDS011;9199;48.832;9.182;2022-08-30T06:01:45;11.07;;;6.30;;
18146;SDS011;9199;48.832;9.182;2022-08-30T06:04:12;11.65;;;6.07;;
18146;SDS011;9199;48.832;9.182;2022-08-30T06:06:40;12.40;;;6.50;;
18146;SDS011;9199;48.832;9.182;2022-08-30T06:09:08;11.38;;;6.80;;
18146;SDS011;9199;48.832;9.182;2022-08-30T06:11:36;12.90;;;6.28;;
18146;SDS011;9199;48.832;9.182;2022-08-30T06:14:03;13.33;;;5.90;;
18146;SDS011;9199;48.832;9.182;2022-08-30T06:16:33;10.57;;;6.28;;
18146;SDS011;9199;48.832;9.182;2022-08-30T06:19:02;12.50;;;6.35;;
18146;SDS011;9199;48.832;9.182;2022-08-30T06:21:31;11.35;;;6.43;;
18146;SDS011;9199;48.832;9.182;2022-08-30T06:23:59;11.18;;;6.03;;
18146;SDS011;9199;48.832;9.182;2022-08-30T06:26:27;10.63;;;6.20;;
18146;SDS011;9199;48.832;9.182;2022-08-30T06:28:54;12.52;;;6.25;;
18146;SDS011;9199;48.832;9.182;2022-08-30T06:31:22;11.95;;;6.70;;
18146;SDS011;9199;48.832;9.182;2022-08-30T06:33:52;10.93;;;6.28;;
18146;SDS011;9199;48.832;9.182;2022-08-30T06:36:19;14.25;;;6.70;;
18146;SDS011;9199;48.832;9.182;2022-08-30T06:38:48;14.40;;;7.20;;
18146;SDS011;9199;48.832;9.182;2022-08-30T06:41:18;11.85;;;6.95;;
18146;SDS011;9199;48.832;9.182;2022-08-30T06:43:46;10.32;;;6.72;;
18146;SDS011;9199;48.832;9.182;2022-08-30T06:46:14;11.57;;;7.03;;
18146;SDS011;9199;48.832;9.182;2022-08-30T06:48:42;13.73;;;7.63;;
18146;SDS011;9199;48.832;9.182;2022-08-30T06:51:11;11.87;;;7.50;;
18146;SDS011;9199;48.832;9.182;2022-08-30T06:53:37;12.55;;;7.10;;
18146;SDS011;9199;48.832;9.182;2022-08-30T06:56:05;13.13;;;6.97;;
18146;SDS011;9199;48.832;9.182;2022-08-30T06:58:33;15.75;;;8.27;;
18146;SDS011;9199;48.832;9.182;2022-08-30T07:01:01;15.10;;;8.75;;
18146;SDS011;9199;48.832;9.182;2022-08-30T07:03:28;16.27;;;8.03;;
18146;SDS011;9199;48.832;9.182;2022-08-30T07:05:55;14.75;;;8.30;;
18146;SDS011;9199;48.832;9.182;2022-08-30T07:08:25;14.18;;;8.07;;
18146;SDS011;9199;48.832;9.182;2022-08-30T07:10:53;15.75;;;8.32;;
18146;SDS011;9199;48.832;9.182;2022-08-30T07:13:20;14.43;;;8.32;;
18146;SDS011;9199;48.832;9.182;2022-08-30T07:15:48;14.43;;;7.83;;
18146;SDS011;9199;48.832;9.182;2022-08-30T07:18:16;14.35;;;7.95;;
18146;SDS011;9199;48.832;9.182;2022-08-30T07:21:04;13.68;;;8.05;;
18146;SDS011;9199;48.832;9.182;2022-08-30T07:23:34;15.35;;;8.20;;
18146;SDS011;9199;48.832;9.182;2022-08-30T07:26:02;13.60;;;8.13;;
18146;SDS011;9199;48.832;9.182;2022-08-30T07:28:30;13.57;;;7.47;;
18146;SDS011;9199;48.832;9.182;2022-08-30T07:30:57;13.15;;;7.53;;
18146;SDS011;9199;48.832;9.182;2022-08-30T07:33:24;13.88;;;7.30;;
18146;SDS011;9199;48.832;9.182;2022-08-30T07:35:51;11.75;;;7.45;;
18146;SDS011;9199;48.832;9.182;2022-08-30T07:38:17;10.80;;;6.88;;
18146;SDS011;9199;48.832;9.182;2022-08-30T07:40:46;10.60;;;6.60;;
18146;SDS011;9199;48.832;9.182;2022-08-30T07:43:12;10.43;;;6.57;;
18146;SDS011;9199;48.832;9.182;2022-08-30T07:45:39;13.05;;;6.72;;
18146;SDS011;9199;48.832;9.182;2022-08-30T07:48:06;13.30;;;6.28;;
18146;SDS011;9199;48.832;9.182;2022-08-30T07:50:35;10.35;;;6.38;;
18146;SDS011;9199;48.832;9.182;2022-08-30T07:53:02;12.03;;;6.30;;
18146;SDS011;9199;48.832;9.182;2022-08-30T07:55:29;10.48;;;6.40;;
18146;SDS011;9199;48.832;9.182;2022-08-30T07:57:57;9.80;;;5.90;;
18146;SDS011;9199;48.832;9.182;2022-08-30T08:00:24;9.88;;;5.75;;
18146;SDS011;9199;48.832;9.182;2022-08-30T08:02:51;10.07;;;5.22;;
18146;SDS011;9199;48.832;9.182;2022-08-30T08:05:18;7.83;;;5.40;;
18146;SDS011;9199;48.832;9.182;2022-08-30T08:07:45;10.40;;;5.75;;
18146;SDS011;9199;48.832;9.182;2022-08-30T08:10:12;9.18;;;5.82;;
18146;SDS011;9199;48.832;9.182;2022-08-30T08:12:40;8.40;;;5.80;;
18146;SDS011;9199;48.832;9.182;2022-08-30T08:15:09;9.18;;;5.75;;
18146;SDS011;9199;48.832;9.182;2022-08-30T08:17:36;9.97;;;5.50;;
18146;SDS011;9199;48.832;9.182;2022-08-30T08:20:03;9.13;;;5.07;;
18146;SDS011;9199;48.832;9.182;2022-08-30T08:22:30;8.93;;;5.50;;
18146;SDS011;9199;48.832;9.182;2022-08-30T08:24:57;10.98;;;4.47;;
18146;SDS011;9199;48.832;9.182;2022-08-30T08:27:24;9.10;;;4.57;;
18146;SDS011;9199;48.832;9.182;2022-08-30T08:29:50;6.90;;;4.53;;
18146;SDS011;9199;48.832;9.182;2022-08-30T08:32:19;7.88;;;4.68;;
18146;SDS011;9199;48.832;9.182;2022-08-30T08:34:45;7.07;;;4.57;;
18146;SDS011;9199;48.832;9.182;2022-08-30T08:37:12;9.20;;;4.13;;
18146;SDS011;9199;48.832;9.182;2022-08-30T08:39:39;7.97;;;4.80;;
18146;SDS011;9199;48.832;9.182;2022-08-30T08:42:08;7.77;;;4.43;;
18146;SDS011;9199;48.832;9.182;2022-08-30T08:44:43;7.95;;;4.43;;
18146;SDS011;9199;48.832;9.182;2022-08-30T08:47:21;6.75;;;4.10;;
18146;SDS011;9199;48.832;9.182;2022-08-30T08:49:54;7.47;;;4.30;;
18146;SDS011;9199;48.832;9.182;2022-08-30T08:52:28;8.65;;;4.10;;
18146;SDS011;9199;48.832;9.182;2022-08-30T08:55:19;7.83;;;4.27;;
18146;SDS011;9199;48.832;9.182;2022-08-30T08:57:47;6.50;;;3.97;;
18146;SDS011;9199;48.832;9.182;2022-08-30T09:00:16;5.80;;;4.15;;
18146;SDS011;9199;48.832;9.182;2022-08-30T09:02:46;6.25;;;4.00;;
18146;SDS011;9199;48.832;9.182;2022-08-30T09:05:17;5.70;;;4.00;;
18146;SDS011;9199;48.832;9.182;2022-08-30T09:07:47;6.83;;;4.07;;
18146;SDS011;9199;48.832;9.182;2022-08-30T09:10:17;7.30;;;4.18;;
18146;SDS011;9199;48.832;9.182;2022-08-30T09:12:44;8.18;;;4.15;;
18146;SDS011;9199;48.832;9.182;2022-08-30T09:15:15;7.13;;;4.30;;
18146;SDS011;9199;48.832;9.182;2022-08-30T09:17:50;7.18;;;4.15;;
18146;SDS011;9199;48.832;9.182;2022-08-30T09:20:26;7.37;;;4.43;;
18146;SDS011;9199;48.832;9.182;2022-08-30T09:22:56;8.25;;;4.20;;
18146;SDS011;9199;48.832;9.182;2022-08-30T09:25:25;7.80;;;3.80;;
18146;SDS011;9199;48.832;9.182;2022-08-30T09:27:54;9.63;;;4.38;;
18146;SDS011;9199;48.832;9.182;2022-08-30T09:30:35;6.45;;;4.47;;
18146;SDS011;9199;48.832;9.182;2022-08-30T09:33:04;9.90;;;4.53;;
18146;SDS011;9199;48.832;9.182;2022-08-30T09:35:34;8.27;;;4.22;;
18146;SDS011;9199;48.832;9.182;2022-08-30T09:38:03;7.47;;;4.03;;
18146;SDS011;9199;48.832;9.182;2022-08-30T09:40:33;6.97;;;3.63;;
18146;SDS011;9199;48.832;9.182;2022-08-30T09:43:05;8.90;;;4.28;;
18146;SDS011;9199;48.832;9.182;2022-08-30T09:45:34;5.80;;;4.00;;
18146;SDS011;9199;48.832;9.182;2022-08-30T09:48:28;8.30;;;4.38;;
18146;SDS011;9199;48.832;9.182;2022-08-30T09:51:04;7.05;;;4.00;;
18146;SDS011;9199;48.832;9.182;2022-08-30T09:53:47;6.22;;;3.88;;
18146;SDS011;9199;48.832;9.182;2022-08-30T09:56:23;6.78;;;4.10;;
18146;SDS011;9199;48.832;9.182;2022-08-30T09:58:59;6.33;;;4.20;;
18146;SDS011;9199;48.832;9.182;2022-08-30T10:01:33;6.03;;;3.78;;
18146;SDS011;9199;48.832;9.182;2022-08-30T10:04:07;6.72;;;4.15;;
18146;SDS011;9199;48.832;9.182;2022-08-30T10:06:40;7.57;;;3.75;;
18146;SDS011;9199;48.832;9.182;2022-08-30T10:09:15;7.43;;;4.00;;
18146;SDS011;9199;48.832;9.182;2022-08-30T10:11:51;6.37;;;3.90;;
18146;SDS011;9199;48.832;9.182;2022-08-30T10:17:15;6.13;;;3.95;;
18146;SDS011;9199;48.832;9.182;2022-08-30T10:19:59;5.35;;;3.80;;
18146;SDS011;9199;48.832;9.182;2022-08-30T10:22:33;6.90;;;4.00;;
18146;SDS011;9199;48.832;9.182;2022-08-30T10:25:06;6.67;;;4.03;;
18146;SDS011;9199;48.832;9.182;2022-08-30T10:27:38;6.28;;;4.00;;
18146;SDS011;9199;48.832;9.182;2022-08-30T10:30:09;5.63;;;3.92;;
18146;SDS011;9199;48.832;9.182;2022-08-30T10:32:41;8.15;;;4.25;;
18146;SDS011;9199;48.832;9.182;2022-08-30T10:35:16;5.38;;;4.25;;
18146;SDS011;9199;48.832;9.182;2022-08-30T10:37:47;11.63;;;4.03;;
18146;SDS011;9199;48.832;9.182;2022-08-30T10:40:18;5.55;;;3.85;;
18146;SDS011;9199;48.832;9.182;2022-08-30T10:43:07;5.75;;;4.07;;
18146;SDS011;9199;48.832;9.182;2022-08-30T10:45:44;6.18;;;4.10;;
18146;SDS011;9199;48.832;9.182;2022-08-30T10:48:15;6.40;;;4.13;;
18146;SDS011;9199;48.832;9.182;2022-08-30T10:50:48;5.60;;;3.70;;
18146;SDS011;9199;48.832;9.182;2022-08-30T10:53:20;5.88;;;3.70;;
18146;SDS011;9199;48.832;9.182;2022-08-30T10:55:55;6.78;;;4.22;;
18146;SDS011;9199;48.832;9.182;2022-08-30T10:58:27;6.82;;;4.32;;
18146;SDS011;9199;48.832;9.182;2022-08-30T11:00:59;5.38;;;4.03;;
18146;SDS011;9199;48.832;9.182;2022-08-30T11:06:34;6.25;;;3.90;;
18146;SDS011;9199;48.832;9.182;2022-08-30T11:09:10;6.05;;;3.88;;
18146;SDS011;9199;48.832;9.182;2022-08-30T11:12:04;6.03;;;3.90;;
18146;SDS011;9199;48.832;9.182;2022-08-30T11:14:46;5.00;;;3.67;;
18146;SDS011;9199;48.832;9.182;2022-08-30T11:17:22;6.50;;;3.90;;
18146;SDS011;9199;48.832;9.182;2022-08-30T11:19:52;5.22;;;3.80;;
18146;SDS011;9199;48.832;9.182;2022-08-30T11:22:24;6.25;;;3.88;;
18146;SDS011;9199;48.832;9.182;2022-08-30T11:25:04;5.40;;;3.53;;
18146;SDS011;9199;48.832;9.182;2022-08-30T11:27:49;5.28;;;3.80;;
18146;SDS011;9199;48.832;9.182;2022-08-30T11:33:26;6.75;;;3.90;;
18146;SDS011;9199;48.832;9.182;2022-08-30T11:36:06;6.43;;;3.70;;
18146;SDS011;9199;48.832;9.182;2022-08-30T11:41:28;6.65;;;3.90;;
18146;SDS011;9199;48.832;9.182;2022-08-30T11:44:10;5.97;;;3.83;;
18146;SDS011;9199;48.832;9.182;2022-08-30T11:46:38;4.97;;;3.70;;
18146;SDS011;9199;48.832;9.182;2022-08-30T11:49:26;6.28;;;3.85;;
18146;SDS011;9199;48.832;9.182;2022-08-30T11:52:11;6.03;;;4.03;;
18146;SDS011;9199;48.832;9.182;2022-08-30T11:54:55;4.95;;;3.85;;
18146;SDS011;9199;48.832;9.182;2022-08-30T11:57:35;6.23;;;3.87;;
18146;SDS011;9199;48.832;9.182;2022-08-30T12:00:09;6.15;;;4.18;;
18146;SDS011;9199;48.832;9.182;2022-08-30T12:02:51;4.93;;;3.75;;
18146;SDS011;9199;48.832;9.182;2022-08-30T12:08:38;6.15;;;3.80;;
18146;SDS011;9199;48.832;9.182;2022-08-30T12:14:10;6.10;;;4.00;;
18146;SDS011;9199;48.832;9.182;2022-08-30T12:17:03;5.05;;;3.65;;
18146;SDS011;9199;48.832;9.182;2022-08-30T12:19:57;6.57;;;3.97;;
18146;SDS011;9199;48.832;9.182;2022-08-30T12:22:25;6.60;;;4.03;;
18146;SDS011;9199;48.832;9.182;2022-08-30T12:24:54;5.73;;;3.90;;
18146;SDS011;9199;48.832;9.182;2022-08-30T12:27:22;4.72;;;3.55;;
18146;SDS011;9199;48.832;9.182;2022-08-30T12:29:52;6.45;;;4.10;;
18146;SDS011;9199;48.832;9.182;2022-08-30T12:32:20;5.50;;;4.10;;
18146;SDS011;9199;48.832;9.182;2022-08-30T12:34:49;7.05;;;4.07;;
18146;SDS011;9199;48.832;9.182;2022-08-30T12:37:19;6.10;;;4.13;;
18146;SDS011;9199;48.832;9.182;2022-08-30T12:39:58;6.00;;;3.67;;
18146;SDS011;9199;48.832;9.182;2022-08-30T12:42:28;7.13;;;4.10;;
18146;SDS011;9199;48.832;9.182;2022-08-30T12:45:03;8.93;;;4.22;;
18146;SDS011;9199;48.832;9.182;2022-08-30T12:47:36;5.35;;;3.80;;
18146;SDS011;9199;48.832;9.182;2022-08-30T12:50:09;5.90;;;3.77;;
18146;SDS011;9199;48.832;9.182;2022-08-30T12:52:39;7.25;;;3.97;;
18146;SDS011;9199;48.832;9.182;2022-08-30T12:55:10;5.88;;;4.10;;
18146;SDS011;9199;48.832;9.182;2022-08-30T12:57:41;5.43;;;3.92;;
18146;SDS011;9199;48.832;9.182;2022-08-30T13:00:22;6.80;;;3.83;;
18146;SDS011;9199;48.832;9.182;2022-08-30T13:02:51;6.67;;;3.77;;
18146;SDS011;9199;48.832;9.182;2022-08-30T13:05:30;6.72;;;4.30;;
18146;SDS011;9199;48.832;9.182;2022-08-30T13:08:09;5.50;;;3.67;;
18146;SDS011;9199;48.832;9.182;2022-08-30T13:10:47;6.45;;;4.15;;
18146;SDS011;9199;48.832;9.182;2022-08-30T13:13:26;7.10;;;4.05;;
18146;SDS011;9199;48.832;9.182;2022-08-30T13:15:56;6.33;;;4.00;;
18146;SDS011;9199;48.832;9.182;2022-08-30T13:18:32;4.88;;;3.65;;
18146;SDS011;9199;48.832;9.182;2022-08-30T13:21:08;5.15;;;3.85;;
18146;SDS011;9199;48.832;9.182;2022-08-30T13:23:37;5.80;;;4.00;;
18146;SDS011;9199;48.832;9.182;2022-08-30T13:26:05;6.18;;;3.75;;
18146;SDS011;9199;48.832;9.182;2022-08-30T13:28:40;5.00;;;3.50;;
18146;SDS011;9199;48.832;9.182;2022-08-30T13:31:10;6.03;;;4.00;;
18146;SDS011;9199;48.832;9.182;2022-08-30T13:33:36;6.25;;;3.75;;
18146;SDS011;9199;48.832;9.182;2022-08-30T13:36:03;6.43;;;4.20;;
18146;SDS011;9199;48.832;9.182;2022-08-30T13:38:30;7.40;;;3.90;;
18146;SDS011;9199;48.832;9.182;2022-08-30T13:40:57;6.77;;;3.67;;
18146;SDS011;9199;48.832;9.182;2022-08-30T13:43:24;5.43;;;3.85;;
18146;SDS011;9199;48.832;9.182;2022-08-30T13:45:50;6.30;;;3.92;;
18146;SDS011;9199;48.832;9.182;2022-08-30T13:48:18;6.65;;;3.90;;
18146;SDS011;9199;48.832;9.182;2022-08-30T13:50:45;5.80;;;3.80;;
18146;SDS011;9199;48.832;9.182;2022-08-30T13:53:12;5.93;;;3.50;;
18146;SDS011;9199;48.832;9.182;2022-08-30T13:55:39;5.63;;;3.88;;
18146;SDS011;9199;48.832;9.182;2022-08-30T13:58:07;5.60;;;3.85;;
18146;SDS011;9199;48.832;9.182;2022-08-30T14:00:34;6.47;;;4.10;;
18146;SDS011;9199;48.832;9.182;2022-08-30T14:03:01;5.40;;;3.80;;
18146;SDS011;9199;48.832;9.182;2022-08-30T14:05:31;5.63;;;3.80;;
18146;SDS011;9199;48.832;9.182;2022-08-30T14:07:59;6.63;;;3.88;;
18146;SDS011;9199;48.832;9.182;2022-08-30T14:10:26;6.15;;;4.20;;
18146;SDS011;9199;48.832;9.182;2022-08-30T14:12:54;6.30;;;3.90;;
18146;SDS011;9199;48.832;9.182;2022-08-30T14:15:21;6.45;;;4.30;;
18146;SDS011;9199;48.832;9.182;2022-08-30T14:17:48;7.63;;;3.57;;
18146;SDS011;9199;48.832;9.182;2022-08-30T14:20:15;5.80;;;4.00;;
18146;SDS011;9199;48.832;9.182;2022-08-30T14:22:43;7.38;;;4.15;;
18146;SDS011;9199;48.832;9.182;2022-08-30T14:25:09;5.53;;;3.78;;
18146;SDS011;9199;48.832;9.182;2022-08-30T14:27:36;6.18;;;4.45;;
18146;SDS011;9199;48.832;9.182;2022-08-30T14:30:03;12.87;;;3.97;;
18146;SDS011;9199;48.832;9.182;2022-08-30T14:32:31;9.10;;;3.90;;
18146;SDS011;9199;48.832;9.182;2022-08-30T14:34:58;6.50;;;3.65;;
18146;SDS011;9199;48.832;9.182;2022-08-30T14:37:25;9.00;;;4.28;;
18146;SDS011;9199;48.832;9.182;2022-08-30T14:39:53;9.30;;;4.00;;
18146;SDS011;9199;48.832;9.182;2022-08-30T14:42:20;5.47;;;3.70;;
18146;SDS011;9199;48.832;9.182;2022-08-30T14:44:47;7.72;;;4.13;;
18146;SDS011;9199;48.832;9.182;2022-08-30T14:47:14;6.32;;;4.43;;
18146;SDS011;9199;48.832;9.182;2022-08-30T14:49:40;6.88;;;4.10;;
18146;SDS011;9199;48.832;9.182;2022-08-30T14:52:07;7.30;;;4.05;;
18146;SDS011;9199;48.832;9.182;2022-08-30T14:54:34;5.77;;;3.87;;
18146;SDS011;9199;48.832;9.182;2022-08-30T14:57:02;7.40;;;4.22;;
18146;SDS011;9199;48.832;9.182;2022-08-30T14:59:29;6.75;;;4.07;;
18146;SDS011;9199;48.832;9.182;2022-08-30T15:01:56;7.63;;;4.00;;
18146;SDS011;9199;48.832;9.182;2022-08-30T15:04:23;8.38;;;4.00;;
18146;SDS011;9199;48.832;9.182;2022-08-30T15:06:49;5.20;;;3.73;;
18146;SDS011;9199;48.832;9.182;2022-08-30T15:09:17;5.90;;;3.85;;
18146;SDS011;9199;48.832;9.182;2022-08-30T15:11:46;8.05;;;4.03;;
18146;SDS011;9199;48.832;9.182;2022-08-30T15:14:14;5.05;;;3.83;;
18146;SDS011;9199;48.832;9.182;2022-08-30T15:16:41;6.60;;;4.00;;
18146;SDS011;9199;48.832;9.182;2022-08-30T15:19:08;6.97;;;3.90;;
18146;SDS011;9199;48.832;9.182;2022-08-30T15:21:38;4.85;;;3.63;;
18146;SDS011;9199;48.832;9.182;2022-08-30T15:24:07;5.57;;;3.72;;
18146;SDS011;9199;48.832;9.182;2022-08-30T15:26:36;5.40;;;3.90;;
18146;SDS011;9199;48.832;9.182;2022-08-30T15:29:05;5.60;;;4.07;;
18146;SDS011;9199;48.832;9.182;2022-08-30T15:31:34;5.60;;;3.97;;